createdAt,value
2023-05-03T00:00:27.609Z,19620.78
2023-05-03T00:02:57.419Z,19588.25
2023-05-03T00:05:28.007Z,19610.59
2023-05-03T00:07:56.922Z,19598.41
2023-05-03T00:10:25.405Z,19598.41
2023-05-03T00:12:53.488Z,19586.22
2023-05-03T00:15:21.567Z,19620.78
2023-05-03T00:17:51.517Z,19622.81
2023-05-03T00:20:20.676Z,19590.28
2023-05-03T00:22:48.912Z,19561.84
2023-05-03T00:25:17.201Z,19561.84
2023-05-03T00:27:45.439Z,19582.16
2023-05-03T00:30:14.740Z,19572.00
2023-05-03T00:32:42.837Z,19549.63
2023-05-03T00:35:12.373Z,19519.16
2023-05-03T00:37:40.533Z,19537.44
2023-05-03T00:40:10.603Z,19504.94
2023-05-03T00:42:38.696Z,19517.13
2023-05-03T00:45:08.358Z,19478.50
2023-05-03T00:47:38.328Z,19472.41
2023-05-03T00:50:11.696Z,19492.75
2023-05-03T00:52:41.924Z,19500.88
2023-05-03T00:55:12.210Z,19500.88
2023-05-03T00:57:40.838Z,19468.34
2023-05-03T01:00:13.468Z,19496.81
2023-05-03T01:02:41.890Z,19496.81
2023-05-03T01:05:10.937Z,19484.59
2023-05-03T01:07:57.466Z,19488.69
2023-05-03T01:10:39.331Z,19482.56
2023-05-03T01:13:20.467Z,19468.34
2023-05-03T01:16:00.841Z,19490.72
2023-05-03T01:18:34.583Z,19443.97
2023-05-03T01:21:06.457Z,19452.09
2023-05-03T01:23:44.765Z,19427.72
2023-05-03T01:26:25.881Z,19431.78
2023-05-03T01:28:54.565Z,19380.97
2023-05-03T01:31:33.805Z,19417.56
2023-05-03T01:34:21.057Z,19452.09
2023-05-03T01:36:53.663Z,19439.91
2023-05-03T01:39:27.804Z,19419.59
2023-05-03T01:41:59.642Z,19405.34
2023-05-03T01:44:30.249Z,19405.34
2023-05-03T01:46:59.069Z,19466.31
2023-05-03T01:49:27.218Z,19415.50
2023-05-03T01:51:55.327Z,19417.56
2023-05-03T01:54:23.436Z,19407.38
2023-05-03T01:56:51.564Z,19387.06
2023-05-03T01:59:21.029Z,19439.91
2023-05-03T02:01:49.139Z,19425.69
2023-05-03T02:04:17.306Z,19441.94
2023-05-03T02:06:45.539Z,19423.66
2023-05-03T02:09:14.638Z,19423.66
2023-05-03T02:11:43.886Z,19480.53
2023-05-03T02:14:12.436Z,19452.09
2023-05-03T02:16:41.956Z,19435.84
2023-05-03T02:19:11.044Z,19439.91
2023-05-03T02:21:39.455Z,19423.66
2023-05-03T02:24:08.122Z,19421.63
2023-05-03T02:26:36.215Z,19407.38
2023-05-03T02:29:04.353Z,19448.03
2023-05-03T02:31:32.566Z,19435.84
2023-05-03T02:34:03.313Z,19431.78
2023-05-03T02:36:31.997Z,19419.59
2023-05-03T02:39:00.117Z,19421.63
2023-05-03T02:41:28.659Z,19437.88
2023-05-03T02:43:56.781Z,19435.84
2023-05-03T02:46:24.986Z,19454.13
2023-05-03T02:48:53.111Z,19476.47
2023-05-03T02:51:22.580Z,19468.34
2023-05-03T02:53:50.756Z,19429.75
2023-05-03T02:56:18.836Z,19466.31
2023-05-03T02:58:47.123Z,19464.28
2023-05-03T03:01:15.228Z,19446.00
2023-05-03T03:03:43.554Z,19448.03
2023-05-03T03:06:11.979Z,19484.59
2023-05-03T03:08:41.487Z,19450.06
2023-05-03T03:11:09.758Z,19452.09
2023-05-03T03:13:39.742Z,19429.75
2023-05-03T03:16:08.409Z,19446.00
2023-05-03T03:18:37.010Z,19464.28
2023-05-03T03:21:05.661Z,19458.19
2023-05-03T03:23:33.787Z,19452.09
2023-05-03T03:26:03.427Z,19448.03
2023-05-03T03:28:31.550Z,19456.16
2023-05-03T03:30:59.876Z,19423.66
2023-05-03T03:33:27.999Z,19423.66
2023-05-03T03:35:56.092Z,19417.56
2023-05-03T03:38:24.159Z,19456.16
2023-05-03T03:40:52.704Z,19460.22
2023-05-03T03:43:22.240Z,19437.88
2023-05-03T03:45:50.590Z,19421.63
2023-05-03T03:48:18.745Z,19421.63
2023-05-03T03:50:47.192Z,19427.72
2023-05-03T03:53:15.376Z,19413.47
2023-05-03T03:55:43.599Z,19435.84
2023-05-03T03:58:11.734Z,19462.25
2023-05-03T04:00:41.534Z,19474.44
2023-05-03T04:03:09.731Z,19435.84
2023-05-03T04:05:37.893Z,19435.84
2023-05-03T04:08:06.612Z,19429.75
2023-05-03T04:10:34.737Z,19476.47
2023-05-03T04:13:03.114Z,19472.41
2023-05-03T04:15:31.228Z,19478.50
2023-05-03T04:18:00.751Z,19480.53
2023-05-03T04:20:29.367Z,19484.59
2023-05-03T04:22:57.500Z,19488.69
2023-05-03T04:25:26.611Z,19460.22
2023-05-03T04:27:55.601Z,19476.47
2023-05-03T04:30:24.728Z,19470.38
2023-05-03T04:32:54.258Z,19482.56
2023-05-03T04:35:23.939Z,19494.78
2023-05-03T04:37:52.016Z,19478.50
2023-05-03T04:40:20.318Z,19478.50
2023-05-03T04:42:48.425Z,19494.78
2023-05-03T04:45:16.570Z,19472.41
2023-05-03T04:47:44.993Z,19506.97
2023-05-03T04:50:13.165Z,19539.47
2023-05-03T04:52:42.648Z,19561.84
2023-05-03T04:55:11.304Z,19576.06
2023-05-03T04:57:39.406Z,19752.88
2023-05-03T05:00:11.863Z,19836.19
2023-05-03T05:02:40.355Z,19915.47
2023-05-03T05:05:10.589Z,19990.66
2023-05-03T05:07:38.699Z,20015.03
2023-05-03T05:10:10.791Z,20008.94
2023-05-03T05:12:39.171Z,19980.50
2023-05-03T05:15:09.032Z,19933.75
2023-05-03T05:17:37.381Z,19876.84
2023-05-03T05:20:07.400Z,19846.34
2023-05-03T05:22:35.796Z,19828.06
2023-05-03T05:25:04.123Z,19797.59
2023-05-03T05:27:33.715Z,19765.06
2023-05-03T05:30:02.230Z,19801.66
2023-05-03T05:32:30.811Z,19789.44
2023-05-03T05:34:58.871Z,19746.78
2023-05-03T05:37:27.423Z,19763.03
2023-05-03T05:39:56.244Z,19773.19
2023-05-03T05:42:24.254Z,19775.22
2023-05-03T05:44:53.668Z,19769.13
2023-05-03T05:47:22.027Z,19815.88
2023-05-03T05:49:50.155Z,19838.22
2023-05-03T05:52:18.222Z,19832.13
2023-05-03T05:54:46.234Z,19834.16
2023-05-03T05:57:14.416Z,19809.78
2023-05-03T05:59:42.525Z,19805.72
2023-05-03T06:02:17.686Z,19817.91
2023-05-03T06:04:47.298Z,19801.66
2023-05-03T06:07:16.241Z,19834.16
2023-05-03T06:09:44.364Z,19813.84
2023-05-03T06:12:12.425Z,19834.16
2023-05-03T06:14:46.300Z,19836.19
2023-05-03T06:17:22.698Z,19846.34
2023-05-03T06:19:50.892Z,19866.69
2023-05-03T06:22:19.075Z,19842.28
2023-05-03T06:24:47.247Z,19817.91
2023-05-03T06:27:15.321Z,19813.84
2023-05-03T06:29:44.332Z,19826.03
2023-05-03T06:32:12.452Z,19860.59
2023-05-03T06:34:41.827Z,19832.13
2023-05-03T06:37:09.952Z,19860.59
2023-05-03T06:39:38.034Z,19842.28
2023-05-03T06:42:06.321Z,19862.63
2023-05-03T06:44:34.563Z,19856.53
2023-05-03T06:47:02.783Z,19854.50
2023-05-03T06:49:30.947Z,19870.75
2023-05-03T06:52:00.400Z,19842.28
2023-05-03T06:54:28.516Z,19889.03
2023-05-03T06:56:56.648Z,19868.72
2023-05-03T06:59:24.737Z,19868.72
2023-05-03T07:01:52.863Z,19874.81
2023-05-03T07:04:21.269Z,19889.03
2023-05-03T07:09:41.379Z,19860.59
2023-05-03T07:12:10.791Z,19860.59
2023-05-03T07:14:40.592Z,19878.88
2023-05-03T07:17:08.699Z,19911.41
2023-05-03T07:19:37.314Z,19901.22
2023-05-03T07:22:05.675Z,19876.84
2023-05-03T07:24:35.173Z,19895.13
2023-05-03T07:27:03.282Z,19913.44
2023-05-03T07:29:31.328Z,19878.88
2023-05-03T07:31:59.743Z,19874.81
2023-05-03T07:34:28.017Z,19931.72
2023-05-03T07:36:56.276Z,19911.41
2023-05-03T07:39:24.280Z,19872.78
2023-05-03T07:41:53.708Z,19927.66
2023-05-03T07:44:22.331Z,19899.19
2023-05-03T07:46:50.342Z,19897.16
2023-05-03T07:49:18.422Z,19915.47
2023-05-03T07:51:46.490Z,19923.59
2023-05-03T07:54:14.536Z,19911.41
2023-05-03T07:56:42.562Z,19925.63
2023-05-03T07:59:11.968Z,19960.16
2023-05-03T08:01:40.374Z,19980.50
2023-05-03T08:04:08.613Z,19913.44
2023-05-03T08:06:38.493Z,19939.84
2023-05-03T08:09:06.759Z,19941.88
2023-05-03T08:11:34.868Z,19952.03
2023-05-03T08:14:03.007Z,19984.56
2023-05-03T08:16:32.460Z,19978.47
2023-05-03T08:19:00.698Z,20043.50
2023-05-03T08:21:28.751Z,19990.66
2023-05-03T08:23:56.789Z,20017.09
2023-05-03T08:26:28.442Z,20021.16
2023-05-03T08:28:56.603Z,20035.38
2023-05-03T08:31:24.809Z,20027.25
2023-05-03T08:33:54.250Z,20047.56
2023-05-03T08:36:22.275Z,20061.78
2023-05-03T08:38:50.726Z,20045.53
2023-05-03T08:41:29.120Z,20061.78
2023-05-03T08:44:01.181Z,20057.72
2023-05-03T08:46:30.559Z,20086.19
2023-05-03T08:49:01.684Z,20059.75
2023-05-03T08:51:29.788Z,20049.59
2023-05-03T08:53:57.997Z,20114.63
2023-05-03T08:56:31.088Z,20080.09
2023-05-03T08:59:07.201Z,20120.75
2023-05-03T09:01:37.712Z,20161.38
2023-05-03T09:04:08.049Z,20151.22
2023-05-03T09:06:37.311Z,20149.19
2023-05-03T09:09:08.651Z,20159.34
2023-05-03T09:11:39.692Z,20210.16
2023-05-03T09:14:13.175Z,20195.94
2023-05-03T09:16:44.432Z,20185.78
2023-05-03T09:19:15.850Z,20244.72
2023-05-03T09:21:47.440Z,20143.09
2023-05-03T09:24:18.488Z,20151.22
2023-05-03T09:26:48.019Z,20147.16
2023-05-03T09:29:30.116Z,20193.91
2023-05-03T09:32:04.674Z,20224.41
2023-05-03T09:34:35.539Z,20155.28
2023-05-03T09:37:03.598Z,20197.97
2023-05-03T09:39:32.279Z,20232.53
2023-05-03T09:42:01.155Z,20200.00
2023-05-03T09:44:43.583Z,20250.81
2023-05-03T09:47:12.906Z,20224.41
2023-05-03T09:49:42.475Z,20244.72
2023-05-03T09:52:11.053Z,20226.44
2023-05-03T09:54:40.755Z,20226.44
2023-05-03T09:57:10.101Z,20214.22
2023-05-03T09:59:39.835Z,20222.38
2023-05-03T10:02:09.180Z,20206.09
2023-05-03T10:04:44.576Z,20240.66
2023-05-03T10:07:18.244Z,20252.84
2023-05-03T10:09:48.770Z,20248.78
2023-05-03T10:12:17.720Z,20248.78
2023-05-03T10:14:49.372Z,20220.34
2023-05-03T10:17:39.441Z,20226.44
2023-05-03T10:20:29.294Z,20228.47
2023-05-03T10:23:14.769Z,20234.56
2023-05-03T10:26:17.155Z,20289.44
2023-05-03T10:28:46.330Z,20240.66
2023-05-03T10:31:45.862Z,20222.38
2023-05-03T10:34:25.274Z,20179.69
2023-05-03T10:36:54.306Z,20228.47
2023-05-03T10:39:23.004Z,20230.50
2023-05-03T10:42:05.082Z,20250.81
2023-05-03T10:44:41.106Z,20216.25
2023-05-03T10:47:14.589Z,20226.44
2023-05-03T10:49:42.878Z,20228.47
2023-05-03T10:52:49.868Z,20265.03
2023-05-03T10:55:20.793Z,20248.78
2023-05-03T10:57:51.167Z,20238.63
2023-05-03T11:00:28.724Z,20265.03
2023-05-03T11:03:14.301Z,20342.28
2023-05-03T11:05:42.862Z,20330.09
2023-05-03T11:08:17.612Z,20330.09
2023-05-03T11:10:46.625Z,20368.72
2023-05-03T11:13:16.731Z,20358.56
2023-05-03T11:15:46.887Z,20299.59
2023-05-03T11:18:16.384Z,20330.09
2023-05-03T11:20:45.586Z,20342.28
2023-05-03T11:23:13.804Z,20324.00
2023-05-03T11:25:41.853Z,20297.56
2023-05-03T11:28:09.933Z,20295.53
2023-05-03T11:30:39.382Z,20301.63
2023-05-03T11:33:07.948Z,20317.91
2023-05-03T11:35:36.694Z,20301.63
2023-05-03T11:38:04.747Z,20350.41
2023-05-03T11:40:32.945Z,20317.91
2023-05-03T11:43:01.708Z,20305.69
2023-05-03T11:45:33.941Z,20289.44
2023-05-03T11:48:03.591Z,20321.97
2023-05-03T11:50:47.511Z,20283.34
2023-05-03T11:53:16.922Z,20236.59
2023-05-03T11:55:47.908Z,20250.81
2023-05-03T11:58:17.550Z,20277.25
2023-05-03T12:00:47.704Z,20319.94
2023-05-03T12:03:24.033Z,20289.44
2023-05-03T12:05:54.623Z,20330.09
2023-05-03T12:08:30.275Z,20277.25
2023-05-03T12:11:01.691Z,20319.94
2023-05-03T12:13:35.946Z,20313.84
2023-05-03T12:16:13.809Z,20313.84
2023-05-03T12:18:56.260Z,20354.47
2023-05-03T12:23:57.874Z,20376.84
2023-05-03T12:26:27.254Z,20346.34
2023-05-03T12:28:56.893Z,20366.69
2023-05-03T12:31:28.915Z,20374.81
2023-05-03T12:36:32.331Z,20393.09
2023-05-03T12:39:02.029Z,20380.91
2023-05-03T12:42:00.934Z,20415.47
2023-05-03T12:44:22.431Z,20362.63
2023-05-03T12:46:53.250Z,20344.31
2023-05-03T12:49:23.666Z,20456.13
2023-05-03T12:52:11.121Z,20419.53
2023-05-03T12:54:42.268Z,20427.66
2023-05-03T12:57:15.361Z,20389.03
2023-05-03T12:59:52.269Z,20407.34
2023-05-03T13:04:59.575Z,20378.88
2023-05-03T13:07:32.288Z,20387.00
2023-05-03T13:12:36.273Z,20384.97
2023-05-03T13:15:05.539Z,20433.75
2023-05-03T13:17:34.173Z,20405.31
2023-05-03T13:20:07.017Z,20427.66
2023-05-03T13:22:35.184Z,20439.84
2023-05-03T13:25:04.385Z,20441.88
2023-05-03T13:27:32.820Z,20429.69
2023-05-03T13:30:04.571Z,20425.63
2023-05-03T13:32:33.180Z,20395.13
2023-05-03T13:35:02.746Z,20476.44
2023-05-03T13:37:30.987Z,20447.97
2023-05-03T13:39:59.262Z,20454.09
2023-05-03T13:42:27.285Z,20488.63
2023-05-03T13:44:55.314Z,20484.56
2023-05-03T13:47:23.385Z,20478.47
2023-05-03T13:49:51.429Z,20494.75
2023-05-03T13:52:20.795Z,20498.81
2023-05-03T13:54:48.849Z,20508.97
2023-05-03T13:57:16.948Z,20482.53
2023-05-03T13:59:45.434Z,20460.19
2023-05-03T14:02:13.447Z,20470.34
2023-05-03T14:04:41.487Z,20492.72
2023-05-03T14:07:09.567Z,20474.41
2023-05-03T14:09:39.566Z,20452.06
2023-05-03T14:12:09.075Z,20511.00
2023-05-03T14:14:37.320Z,20452.06
2023-05-03T14:17:06.196Z,20447.97
2023-05-03T14:19:36.680Z,20519.13
2023-05-03T14:22:04.831Z,20521.16
2023-05-03T14:24:32.884Z,20523.19
2023-05-03T14:27:02.970Z,20543.53
2023-05-03T14:29:31.330Z,20537.44
2023-05-03T14:31:59.367Z,20513.03
2023-05-03T14:34:28.955Z,20555.72
2023-05-03T14:36:57.029Z,20500.84
2023-05-03T14:39:25.497Z,20549.63
2023-05-03T14:41:55.145Z,20531.31
2023-05-03T14:44:25.822Z,20537.44
2023-05-03T14:46:54.007Z,20466.28
2023-05-03T14:49:22.259Z,20517.09
2023-05-03T14:51:50.287Z,20466.28
2023-05-03T14:54:19.592Z,20472.38
2023-05-03T14:56:47.889Z,20474.41
2023-05-03T14:59:15.991Z,20472.38
2023-05-03T15:01:45.438Z,20447.97
2023-05-03T15:04:13.586Z,20458.16
2023-05-03T15:06:42.808Z,20488.63
2023-05-03T15:09:12.798Z,20504.91
2023-05-03T15:11:41.315Z,20496.78
2023-05-03T15:14:10.050Z,20476.44
2023-05-03T15:16:38.240Z,20482.53
2023-05-03T15:19:08.375Z,20472.38
2023-05-03T15:21:47.359Z,20478.47
2023-05-03T15:24:16.127Z,20482.53
2023-05-03T15:26:44.230Z,20437.81
2023-05-03T15:29:12.437Z,20437.81
2023-05-03T15:31:40.610Z,20421.56
2023-05-03T15:34:11.161Z,20456.13
2023-05-03T15:36:40.338Z,20460.19
2023-05-03T15:39:09.170Z,20445.94
2023-05-03T15:41:37.376Z,20435.78
2023-05-03T15:44:07.876Z,20450.03
2023-05-03T15:46:36.294Z,20415.47
2023-05-03T15:49:05.222Z,20401.22
2023-05-03T15:51:34.791Z,20435.78
2023-05-03T15:54:02.803Z,20380.91
2023-05-03T15:56:31.162Z,20399.19
2023-05-03T15:58:59.626Z,20376.84
2023-05-03T16:01:27.811Z,20401.22
2023-05-03T16:03:56.080Z,20435.78
2023-05-03T16:06:24.237Z,20399.19
2023-05-03T16:08:53.984Z,20407.34
2023-05-03T16:11:22.441Z,20395.13
2023-05-03T16:13:51.353Z,20407.34
2023-05-03T16:16:19.425Z,20393.09
2023-05-03T16:18:47.561Z,20374.81
2023-05-03T16:21:16.837Z,20397.16
2023-05-03T16:23:46.013Z,20395.13
2023-05-03T16:26:15.525Z,20364.66
2023-05-03T16:28:43.897Z,20372.78
2023-05-03T16:31:12.056Z,20330.09
2023-05-03T16:33:40.088Z,20328.06
2023-05-03T16:36:08.741Z,20328.06
2023-05-03T16:38:36.936Z,20368.72
2023-05-03T16:41:05.048Z,20346.34
2023-05-03T16:43:34.627Z,20376.84
2023-05-03T16:46:03.185Z,20332.13
2023-05-03T16:48:32.506Z,20330.09
2023-05-03T16:51:00.996Z,20374.81
2023-05-03T16:53:29.150Z,20338.22
2023-05-03T16:55:57.288Z,20328.06
2023-05-03T16:58:25.362Z,20382.94
2023-05-03T17:00:54.814Z,20299.59
2023-05-03T17:03:23.096Z,20319.94
2023-05-03T17:05:51.230Z,20346.34
2023-05-03T17:08:19.289Z,20354.47
2023-05-03T17:10:47.285Z,20372.78
2023-05-03T17:13:16.487Z,20289.44
2023-05-03T17:15:44.782Z,20285.38
2023-05-03T17:18:14.211Z,20281.31
2023-05-03T17:20:42.882Z,20285.38
2023-05-03T17:23:10.963Z,20258.94
2023-05-03T17:25:39.115Z,20246.75
2023-05-03T17:28:07.214Z,20267.09
2023-05-03T17:30:35.696Z,20258.94
2023-05-03T17:33:03.833Z,20256.91
2023-05-03T17:35:33.427Z,20236.59
2023-05-03T17:38:01.562Z,20289.44
2023-05-03T17:40:29.667Z,20260.97
2023-05-03T17:42:57.804Z,20242.69
2023-05-03T17:45:27.744Z,20244.72
2023-05-03T17:47:56.360Z,20216.25
2023-05-03T17:50:24.486Z,20200.00
2023-05-03T17:52:55.392Z,20222.38
2023-05-03T17:55:23.539Z,20173.59
2023-05-03T17:57:51.680Z,20183.75
2023-05-03T18:00:22.420Z,20183.75
2023-05-03T18:02:50.556Z,20147.16
2023-05-03T18:05:18.872Z,20110.56
2023-05-03T18:07:47.029Z,20124.81
2023-05-03T18:10:17.518Z,20151.22
2023-05-03T18:12:45.759Z,20145.13
2023-05-03T18:15:15.348Z,20106.50
2023-05-03T18:17:43.873Z,20088.22
2023-05-03T18:20:13.613Z,20137.00
2023-05-03T18:22:42.188Z,20090.25
2023-05-03T18:25:10.965Z,20078.06
2023-05-03T18:27:40.470Z,20061.78
2023-05-03T18:30:10.485Z,20065.84
2023-05-03T18:32:38.694Z,20021.16
2023-05-03T18:35:07.801Z,20045.53
2023-05-03T18:37:35.904Z,20039.44
2023-05-03T18:40:04.732Z,20041.47
2023-05-03T18:42:33.268Z,19986.59
2023-05-03T18:45:02.740Z,20021.16
2023-05-03T18:47:31.005Z,19968.31
2023-05-03T18:49:59.086Z,20008.94
2023-05-03T18:52:27.206Z,19972.38
2023-05-03T18:54:55.304Z,19996.75
2023-05-03T18:57:23.383Z,19954.06
2023-05-03T19:00:00.251Z,19992.69
2023-05-03T19:02:31.485Z,19970.34
2023-05-03T19:05:00.792Z,19988.63
2023-05-03T19:07:29.278Z,20002.84
2023-05-03T19:09:58.270Z,20017.09
2023-05-03T19:12:26.805Z,19986.59
2023-05-03T19:14:55.030Z,20004.88
2023-05-03T19:17:23.471Z,19972.38
2023-05-03T19:19:52.918Z,20006.91
2023-05-03T19:22:21.329Z,19978.47
2023-05-03T19:24:50.207Z,19986.59
2023-05-03T19:27:18.507Z,19960.16
2023-05-03T19:29:46.620Z,19950.00
2023-05-03T19:32:14.713Z,19925.63
2023-05-03T19:34:42.893Z,19905.28
2023-05-03T19:37:12.483Z,19899.19
2023-05-03T19:39:40.651Z,19925.63
2023-05-03T19:42:08.904Z,19864.66
2023-05-03T19:44:37.442Z,19868.72
2023-05-03T19:47:05.740Z,19874.81
2023-05-03T19:49:34.099Z,19880.91
2023-05-03T19:52:04.414Z,19856.53
2023-05-03T19:54:34.122Z,19842.28
2023-05-03T19:57:05.963Z,19862.63
2023-05-03T19:59:34.550Z,19878.88
2023-05-03T20:02:03.016Z,19880.91
2023-05-03T20:04:31.413Z,19828.06
2023-05-03T20:06:59.614Z,19880.91
2023-05-03T20:09:27.697Z,19868.72
2023-05-03T20:11:59.861Z,19856.53
2023-05-03T20:14:28.185Z,19854.50
2023-05-03T20:16:59.211Z,19813.84
2023-05-03T20:19:27.436Z,19854.50
2023-05-03T20:21:55.492Z,19858.56
2023-05-03T20:24:23.695Z,19803.69
2023-05-03T20:26:52.687Z,19864.66
2023-05-03T20:29:22.170Z,19856.53
2023-05-03T20:31:53.497Z,19854.50
2023-05-03T20:34:21.820Z,19862.63
2023-05-03T20:36:49.956Z,19791.47
2023-05-03T20:39:18.082Z,19809.78
2023-05-03T20:41:46.314Z,19830.09
2023-05-03T20:44:14.732Z,19826.03
2023-05-03T20:46:45.374Z,19758.97
2023-05-03T20:49:13.544Z,19795.53
2023-05-03T20:51:41.716Z,19785.38
2023-05-03T20:54:09.826Z,19821.97
2023-05-03T20:56:37.981Z,19815.88
2023-05-03T20:59:06.853Z,19779.28
2023-05-03T21:01:35.088Z,19773.19
2023-05-03T21:04:04.716Z,19813.84
2023-05-03T21:06:32.831Z,19777.25
2023-05-03T21:09:00.940Z,19756.94
2023-05-03T21:11:29.042Z,19779.28
2023-05-03T21:13:58.149Z,19756.94
2023-05-03T21:16:27.838Z,19748.81
2023-05-03T21:18:56.031Z,19752.88
2023-05-03T21:21:25.568Z,19756.94
2023-05-03T21:23:53.695Z,19801.66
2023-05-03T21:26:22.074Z,19781.31
2023-05-03T21:28:50.785Z,19787.41
2023-05-03T21:31:18.952Z,19777.25
2023-05-03T21:33:47.082Z,19803.69
2023-05-03T21:36:16.375Z,19769.13
2023-05-03T21:38:46.033Z,19787.41
2023-05-03T21:41:14.463Z,19752.88
2023-05-03T21:43:42.691Z,19761.00
2023-05-03T21:46:11.080Z,19761.00
2023-05-03T21:48:40.244Z,19708.16
2023-05-03T21:51:08.559Z,19702.06
2023-05-03T21:53:36.827Z,19730.50
2023-05-03T21:56:07.035Z,19724.41
2023-05-03T21:58:35.113Z,19724.41
2023-05-03T22:01:03.572Z,19728.47
2023-05-03T22:03:31.800Z,19720.34
2023-05-03T22:06:00.127Z,19722.38
2023-05-03T22:08:28.215Z,19756.94
2023-05-03T22:10:56.984Z,19720.34
2023-05-03T22:13:26.598Z,19706.13
2023-05-03T22:15:54.724Z,19691.91
2023-05-03T22:18:23.936Z,19716.28
2023-05-03T22:20:52.272Z,19704.09
2023-05-03T22:23:20.375Z,19704.09
2023-05-03T22:25:48.665Z,19691.91
2023-05-03T22:28:16.760Z,19695.97
2023-05-03T22:30:46.709Z,19651.25
2023-05-03T22:33:15.210Z,19663.44
2023-05-03T22:35:43.386Z,19683.78
2023-05-03T22:38:11.590Z,19649.22
2023-05-03T22:40:39.722Z,19641.09
2023-05-03T22:43:07.820Z,19651.25
2023-05-03T22:45:35.972Z,19671.56
2023-05-03T22:48:06.099Z,19643.13
2023-05-03T22:50:34.356Z,19651.25
2023-05-03T22:53:02.455Z,19649.22
2023-05-03T22:55:30.552Z,19635.00
2023-05-03T22:57:58.653Z,19637.03
2023-05-03T23:00:27.064Z,19622.81
2023-05-03T23:02:55.605Z,19637.03
2023-05-03T23:05:25.726Z,19661.41
2023-05-03T23:07:53.827Z,19635.00
2023-05-03T23:10:22.029Z,19669.53
2023-05-03T23:12:50.386Z,19653.28
2023-05-03T23:15:18.700Z,19671.56
2023-05-03T23:17:46.839Z,19614.66
2023-05-03T23:20:15.565Z,19622.81
2023-05-03T23:22:45.023Z,19628.91
2023-05-03T23:25:13.146Z,19635.00
2023-05-03T23:27:41.354Z,19653.28
2023-05-03T23:30:11.081Z,19628.91
2023-05-03T23:32:39.958Z,19626.88
2023-05-03T23:35:10.303Z,19604.50
2023-05-03T23:37:38.408Z,19649.22
2023-05-03T23:40:09.631Z,19596.38
2023-05-03T23:42:39.581Z,19569.97
2023-05-03T23:45:09.806Z,19572.00
2023-05-03T23:47:38.019Z,19555.75
2023-05-03T23:50:07.650Z,19610.59
2023-05-03T23:52:36.920Z,19569.97
2023-05-03T23:55:07.361Z,19545.56
2023-05-03T23:57:35.904Z,19549.63
